sensor_id;sensor_type;location;lat;lon;timestamp;P1;durP1;ratioP1;P2;durP2;ratioP2
74100;SDS011;62462;52.530;21.682;2023-02-28T00:00:15;18.27;;;8.33;;
74100;SDS011;62462;52.530;21.682;2023-02-28T00:02:42;16.03;;;7.93;;
74100;SDS011;62462;52.530;21.682;2023-02-28T00:05:09;15.37;;;7.43;;
74100;SDS011;62462;52.530;21.682;2023-02-28T00:07:36;15.57;;;7.67;;
74100;SDS011;62462;52.530;21.682;2023-02-28T00:10:03;14.63;;;7.70;;
74100;SDS011;62462;52.530;21.682;2023-02-28T00:12:31;13.17;;;8.33;;
74100;SDS011;62462;52.530;21.682;2023-02-28T00:14:57;13.00;;;7.27;;
74100;SDS011;62462;52.530;21.682;2023-02-28T00:17:23;12.30;;;7.13;;
74100;SDS011;62462;52.530;21.682;2023-02-28T00:19:49;11.83;;;6.40;;
74100;SDS011;62462;52.530;21.682;2023-02-28T00:22:16;13.27;;;7.50;;
74100;SDS011;62462;52.530;21.682;2023-02-28T00:24:43;14.40;;;7.17;;
74100;SDS011;62462;52.530;21.682;2023-02-28T00:27:09;11.87;;;6.60;;
74100;SDS011;62462;52.530;21.682;2023-02-28T00:29:35;12.73;;;6.63;;
74100;SDS011;62462;52.530;21.682;2023-02-28T00:32:01;10.97;;;6.63;;
74100;SDS011;62462;52.530;21.682;2023-02-28T00:34:27;12.57;;;6.80;;
74100;SDS011;62462;52.530;21.682;2023-02-28T00:36:53;11.37;;;6.70;;
74100;SDS011;62462;52.530;21.682;2023-02-28T00:39:19;13.33;;;7.00;;
74100;SDS011;62462;52.530;21.682;2023-02-28T00:41:45;13.30;;;7.27;;
74100;SDS011;62462;52.530;21.682;2023-02-28T00:44:11;12.37;;;6.70;;
74100;SDS011;62462;52.530;21.682;2023-02-28T00:46:36;14.33;;;7.40;;
74100;SDS011;62462;52.530;21.682;2023-02-28T00:49:02;15.10;;;7.23;;
74100;SDS011;62462;52.530;21.682;2023-02-28T00:51:28;13.30;;;7.10;;
74100;SDS011;62462;52.530;21.682;2023-02-28T00:53:54;11.10;;;6.70;;
74100;SDS011;62462;52.530;21.682;2023-02-28T00:56:19;12.07;;;7.03;;
74100;SDS011;62462;52.530;21.682;2023-02-28T00:58:45;12.30;;;6.63;;
74100;SDS011;62462;52.530;21.682;2023-02-28T01:01:11;13.87;;;6.47;;
74100;SDS011;62462;52.530;21.682;2023-02-28T01:03:37;11.90;;;6.53;;
74100;SDS011;62462;52.530;21.682;2023-02-28T01:06:04;13.13;;;6.07;;
74100;SDS011;62462;52.530;21.682;2023-02-28T01:08:30;14.20;;;7.00;;
74100;SDS011;62462;52.530;21.682;2023-02-28T01:10:56;13.77;;;8.00;;
74100;SDS011;62462;52.530;21.682;2023-02-28T01:13:22;14.53;;;7.17;;
74100;SDS011;62462;52.530;21.682;2023-02-28T01:15:52;12.30;;;6.70;;
74100;SDS011;62462;52.530;21.682;2023-02-28T01:18:20;12.10;;;6.53;;
74100;SDS011;62462;52.530;21.682;2023-02-28T01:20:46;11.50;;;6.80;;
74100;SDS011;62462;52.530;21.682;2023-02-28T01:23:12;11.37;;;6.93;;
74100;SDS011;62462;52.530;21.682;2023-02-28T01:25:38;13.57;;;6.87;;
74100;SDS011;62462;52.530;21.682;2023-02-28T01:28:05;11.00;;;6.17;;
74100;SDS011;62462;52.530;21.682;2023-02-28T01:30:31;14.80;;;7.13;;
74100;SDS011;62462;52.530;21.682;2023-02-28T01:32:57;13.27;;;6.83;;
74100;SDS011;62462;52.530;21.682;2023-02-28T01:35:23;12.80;;;6.80;;
74100;SDS011;62462;52.530;21.682;2023-02-28T01:37:49;11.90;;;6.80;;
74100;SDS011;62462;52.530;21.682;2023-02-28T01:40:15;12.93;;;6.23;;
74100;SDS011;62462;52.530;21.682;2023-02-28T01:42:41;13.13;;;6.00;;
74100;SDS011;62462;52.530;21.682;2023-02-28T01:45:26;11.13;;;5.70;;
74100;SDS011;62462;52.530;21.682;2023-02-28T01:48:02;12.03;;;6.67;;
74100;SDS011;62462;52.530;21.682;2023-02-28T01:50:31;10.27;;;6.10;;
74100;SDS011;62462;52.530;21.682;2023-02-28T01:53:04;10.93;;;6.47;;
74100;SDS011;62462;52.530;21.682;2023-02-28T01:55:33;11.70;;;6.37;;
74100;SDS011;62462;52.530;21.682;2023-02-28T01:58:01;10.67;;;6.10;;
74100;SDS011;62462;52.530;21.682;2023-02-28T02:00:29;12.53;;;6.40;;
74100;SDS011;62462;52.530;21.682;2023-02-28T02:02:59;10.33;;;5.93;;
74100;SDS011;62462;52.530;21.682;2023-02-28T02:05:37;9.33;;;5.90;;
74100;SDS011;62462;52.530;21.682;2023-02-28T02:08:05;10.33;;;5.73;;
74100;SDS011;62462;52.530;21.682;2023-02-28T02:10:53;11.33;;;5.90;;
74100;SDS011;62462;52.530;21.682;2023-02-28T02:16:04;9.10;;;5.70;;
74100;SDS011;62462;52.530;21.682;2023-02-28T02:38:09;11.35;;;5.95;;
74100;SDS011;62462;52.530;21.682;2023-02-28T02:43:32;14.77;;;7.63;;
74100;SDS011;62462;52.530;21.682;2023-02-28T02:46:18;13.27;;;7.20;;
74100;SDS011;62462;52.530;21.682;2023-02-28T02:48:49;12.00;;;6.60;;
74100;SDS011;62462;52.530;21.682;2023-02-28T02:51:19;11.73;;;6.57;;
74100;SDS011;62462;52.530;21.682;2023-02-28T02:53:48;12.60;;;6.83;;
74100;SDS011;62462;52.530;21.682;2023-02-28T02:56:35;12.00;;;6.47;;
74100;SDS011;62462;52.530;21.682;2023-02-28T02:59:04;15.67;;;7.37;;
74100;SDS011;62462;52.530;21.682;2023-02-28T03:01:34;17.37;;;7.47;;
74100;SDS011;62462;52.530;21.682;2023-02-28T03:04:09;15.33;;;7.27;;
74100;SDS011;62462;52.530;21.682;2023-02-28T03:06:38;15.80;;;7.20;;
74100;SDS011;62462;52.530;21.682;2023-02-28T03:09:04;12.33;;;6.60;;
74100;SDS011;62462;52.530;21.682;2023-02-28T03:11:29;13.70;;;6.73;;
74100;SDS011;62462;52.530;21.682;2023-02-28T03:16:36;12.77;;;6.53;;
74100;SDS011;62462;52.530;21.682;2023-02-28T03:25:13;12.07;;;6.50;;
74100;SDS011;62462;52.530;21.682;2023-02-28T03:30:23;14.50;;;6.20;;
74100;SDS011;62462;52.530;21.682;2023-02-28T03:35:26;12.67;;;6.70;;
74100;SDS011;62462;52.530;21.682;2023-02-28T03:38:13;15.10;;;6.57;;
74100;SDS011;62462;52.530;21.682;2023-02-28T03:40:46;16.93;;;7.40;;
74100;SDS011;62462;52.530;21.682;2023-02-28T03:43:22;15.63;;;6.83;;
74100;SDS011;62462;52.530;21.682;2023-02-28T03:45:52;14.00;;;6.00;;
74100;SDS011;62462;52.530;21.682;2023-02-28T03:48:26;12.50;;;6.67;;
74100;SDS011;62462;52.530;21.682;2023-02-28T03:50:59;13.30;;;6.20;;
74100;SDS011;62462;52.530;21.682;2023-02-28T03:53:39;11.90;;;6.60;;
74100;SDS011;62462;52.530;21.682;2023-02-28T03:56:11;10.90;;;5.87;;
74100;SDS011;62462;52.530;21.682;2023-02-28T04:01:45;11.70;;;5.87;;
74100;SDS011;62462;52.530;21.682;2023-02-28T04:04:13;10.67;;;5.60;;
74100;SDS011;62462;52.530;21.682;2023-02-28T04:06:41;10.57;;;5.77;;
74100;SDS011;62462;52.530;21.682;2023-02-28T04:09:07;10.97;;;5.13;;
74100;SDS011;62462;52.530;21.682;2023-02-28T04:14:10;10.93;;;5.97;;
74100;SDS011;62462;52.530;21.682;2023-02-28T04:16:38;9.73;;;5.33;;
74100;SDS011;62462;52.530;21.682;2023-02-28T04:19:06;8.53;;;4.93;;
74100;SDS011;62462;52.530;21.682;2023-02-28T04:24:10;16.67;;;6.50;;
74100;SDS011;62462;52.530;21.682;2023-02-28T04:26:42;12.60;;;6.23;;
74100;SDS011;62462;52.530;21.682;2023-02-28T04:29:10;15.63;;;6.47;;
74100;SDS011;62462;52.530;21.682;2023-02-28T04:31:38;12.33;;;6.67;;
74100;SDS011;62462;52.530;21.682;2023-02-28T04:34:05;13.07;;;6.90;;
74100;SDS011;62462;52.530;21.682;2023-02-28T04:36:31;12.67;;;6.70;;
74100;SDS011;62462;52.530;21.682;2023-02-28T04:38:57;11.13;;;6.33;;
74100;SDS011;62462;52.530;21.682;2023-02-28T04:41:22;14.37;;;6.50;;
74100;SDS011;62462;52.530;21.682;2023-02-28T04:43:49;11.70;;;7.20;;
74100;SDS011;62462;52.530;21.682;2023-02-28T04:46:16;10.97;;;6.37;;
74100;SDS011;62462;52.530;21.682;2023-02-28T04:48:43;12.47;;;7.13;;
74100;SDS011;62462;52.530;21.682;2023-02-28T04:51:10;15.83;;;7.80;;
74100;SDS011;62462;52.530;21.682;2023-02-28T04:53:38;17.80;;;9.67;;
74100;SDS011;62462;52.530;21.682;2023-02-28T04:56:05;20.23;;;10.37;;
74100;SDS011;62462;52.530;21.682;2023-02-28T04:58:32;19.63;;;11.90;;
74100;SDS011;62462;52.530;21.682;2023-02-28T05:01:01;20.33;;;12.27;;
74100;SDS011;62462;52.530;21.682;2023-02-28T05:03:45;21.67;;;12.53;;
74100;SDS011;62462;52.530;21.682;2023-02-28T05:06:11;24.00;;;11.53;;
74100;SDS011;62462;52.530;21.682;2023-02-28T05:08:38;24.97;;;12.13;;
74100;SDS011;62462;52.530;21.682;2023-02-28T05:11:06;22.03;;;11.40;;
74100;SDS011;62462;52.530;21.682;2023-02-28T05:13:38;14.50;;;7.87;;
74100;SDS011;62462;52.530;21.682;2023-02-28T05:16:04;18.37;;;8.73;;
74100;SDS011;62462;52.530;21.682;2023-02-28T05:18:30;15.83;;;8.33;;
74100;SDS011;62462;52.530;21.682;2023-02-28T05:20:56;15.77;;;7.80;;
74100;SDS011;62462;52.530;21.682;2023-02-28T05:23:21;17.03;;;7.97;;
74100;SDS011;62462;52.530;21.682;2023-02-28T05:25:50;13.93;;;7.80;;
74100;SDS011;62462;52.530;21.682;2023-02-28T05:28:17;13.00;;;6.60;;
74100;SDS011;62462;52.530;21.682;2023-02-28T05:30:43;14.63;;;7.70;;
74100;SDS011;62462;52.530;21.682;2023-02-28T05:33:10;16.70;;;7.63;;
74100;SDS011;62462;52.530;21.682;2023-02-28T05:35:38;13.37;;;6.90;;
74100;SDS011;62462;52.530;21.682;2023-02-28T05:38:10;12.93;;;7.40;;
74100;SDS011;62462;52.530;21.682;2023-02-28T05:40:37;13.00;;;6.73;;
74100;SDS011;62462;52.530;21.682;2023-02-28T05:43:04;12.03;;;6.87;;
74100;SDS011;62462;52.530;21.682;2023-02-28T05:45:30;13.20;;;6.80;;
74100;SDS011;62462;52.530;21.682;2023-02-28T05:47:56;11.03;;;6.80;;
74100;SDS011;62462;52.530;21.682;2023-02-28T05:50:22;13.67;;;6.67;;
74100;SDS011;62462;52.530;21.682;2023-02-28T05:52:51;12.07;;;6.27;;
74100;SDS011;62462;52.530;21.682;2023-02-28T05:55:17;12.63;;;6.60;;
74100;SDS011;62462;52.530;21.682;2023-02-28T05:57:43;12.23;;;6.47;;
74100;SDS011;62462;52.530;21.682;2023-02-28T06:00:09;12.77;;;6.17;;
74100;SDS011;62462;52.530;21.682;2023-02-28T06:02:35;10.97;;;6.20;;
74100;SDS011;62462;52.530;21.682;2023-02-28T06:05:01;13.27;;;6.60;;
74100;SDS011;62462;52.530;21.682;2023-02-28T06:07:27;11.77;;;6.77;;
74100;SDS011;62462;52.530;21.682;2023-02-28T06:09:53;13.73;;;7.47;;
74100;SDS011;62462;52.530;21.682;2023-02-28T06:12:19;17.93;;;8.70;;
74100;SDS011;62462;52.530;21.682;2023-02-28T06:14:45;25.70;;;11.87;;
74100;SDS011;62462;52.530;21.682;2023-02-28T06:17:10;28.07;;;11.87;;
74100;SDS011;62462;52.530;21.682;2023-02-28T06:19:37;22.67;;;10.43;;
74100;SDS011;62462;52.530;21.682;2023-02-28T06:22:06;19.20;;;9.10;;
74100;SDS011;62462;52.530;21.682;2023-02-28T06:24:32;14.97;;;7.87;;
74100;SDS011;62462;52.530;21.682;2023-02-28T06:26:58;15.93;;;7.40;;
74100;SDS011;62462;52.530;21.682;2023-02-28T06:29:30;13.53;;;7.20;;
74100;SDS011;62462;52.530;21.682;2023-02-28T06:31:59;11.70;;;6.17;;
74100;SDS011;62462;52.530;21.682;2023-02-28T06:34:25;14.80;;;7.50;;
74100;SDS011;62462;52.530;21.682;2023-02-28T06:36:51;11.77;;;6.70;;
74100;SDS011;62462;52.530;21.682;2023-02-28T06:39:17;12.60;;;6.50;;
74100;SDS011;62462;52.530;21.682;2023-02-28T06:41:43;12.17;;;6.90;;
74100;SDS011;62462;52.530;21.682;2023-02-28T06:44:14;12.87;;;7.00;;
74100;SDS011;62462;52.530;21.682;2023-02-28T06:46:42;11.63;;;6.70;;
74100;SDS011;62462;52.530;21.682;2023-02-28T06:49:10;14.17;;;6.87;;
74100;SDS011;62462;52.530;21.682;2023-02-28T06:51:37;15.77;;;7.77;;
74100;SDS011;62462;52.530;21.682;2023-02-28T06:54:04;13.87;;;7.17;;
74100;SDS011;62462;52.530;21.682;2023-02-28T06:56:34;19.20;;;8.17;;
74100;SDS011;62462;52.530;21.682;2023-02-28T06:59:00;14.00;;;7.33;;
74100;SDS011;62462;52.530;21.682;2023-02-28T07:01:26;17.23;;;8.00;;
74100;SDS011;62462;52.530;21.682;2023-02-28T07:03:53;15.27;;;7.47;;
74100;SDS011;62462;52.530;21.682;2023-02-28T07:06:20;14.33;;;7.23;;
74100;SDS011;62462;52.530;21.682;2023-02-28T07:08:47;14.33;;;7.40;;
74100;SDS011;62462;52.530;21.682;2023-02-28T07:11:14;13.67;;;7.13;;
74100;SDS011;62462;52.530;21.682;2023-02-28T07:13:40;13.30;;;7.40;;
74100;SDS011;62462;52.530;21.682;2023-02-28T07:16:07;13.87;;;7.40;;
74100;SDS011;62462;52.530;21.682;2023-02-28T07:18:35;13.20;;;6.70;;
74100;SDS011;62462;52.530;21.682;2023-02-28T07:21:02;13.93;;;7.50;;
74100;SDS011;62462;52.530;21.682;2023-02-28T07:23:29;12.57;;;6.80;;
74100;SDS011;62462;52.530;21.682;2023-02-28T07:25:55;12.83;;;6.80;;
74100;SDS011;62462;52.530;21.682;2023-02-28T07:28:21;13.00;;;7.17;;
74100;SDS011;62462;52.530;21.682;2023-02-28T07:30:46;13.33;;;7.33;;
74100;SDS011;62462;52.530;21.682;2023-02-28T07:33:13;14.03;;;7.60;;
74100;SDS011;62462;52.530;21.682;2023-02-28T07:35:39;15.93;;;8.13;;
74100;SDS011;62462;52.530;21.682;2023-02-28T07:38:05;18.37;;;9.80;;
74100;SDS011;62462;52.530;21.682;2023-02-28T07:40:33;17.73;;;11.20;;
74100;SDS011;62462;52.530;21.682;2023-02-28T07:42:59;15.97;;;8.63;;
74100;SDS011;62462;52.530;21.682;2023-02-28T07:45:26;18.13;;;9.10;;
74100;SDS011;62462;52.530;21.682;2023-02-28T07:47:53;21.30;;;10.17;;
74100;SDS011;62462;52.530;21.682;2023-02-28T07:50:20;15.83;;;8.90;;
74100;SDS011;62462;52.530;21.682;2023-02-28T07:52:45;15.83;;;7.87;;
74100;SDS011;62462;52.530;21.682;2023-02-28T07:55:11;13.55;;;7.85;;
74100;SDS011;62462;52.530;21.682;2023-02-28T07:57:40;16.67;;;8.47;;
74100;SDS011;62462;52.530;21.682;2023-02-28T08:00:07;25.90;;;14.23;;
74100;SDS011;62462;52.530;21.682;2023-02-28T08:02:34;17.30;;;9.50;;
74100;SDS011;62462;52.530;21.682;2023-02-28T08:05:02;28.48;;;12.40;;
74100;SDS011;62462;52.530;21.682;2023-02-28T08:07:28;14.43;;;8.18;;
74100;SDS011;62462;52.530;21.682;2023-02-28T08:09:54;17.58;;;8.38;;
74100;SDS011;62462;52.530;21.682;2023-02-28T08:12:19;14.57;;;8.52;;
74100;SDS011;62462;52.530;21.682;2023-02-28T08:14:45;17.60;;;8.25;;
74100;SDS011;62462;52.530;21.682;2023-02-28T08:17:11;17.75;;;9.95;;
74100;SDS011;62462;52.530;21.682;2023-02-28T08:19:37;19.30;;;9.47;;
74100;SDS011;62462;52.530;21.682;2023-02-28T08:22:03;15.57;;;8.17;;
74100;SDS011;62462;52.530;21.682;2023-02-28T08:24:29;13.03;;;7.03;;
74100;SDS011;62462;52.530;21.682;2023-02-28T08:26:55;13.93;;;8.17;;
74100;SDS011;62462;52.530;21.682;2023-02-28T08:29:21;14.95;;;7.95;;
74100;SDS011;62462;52.530;21.682;2023-02-28T08:31:47;11.85;;;7.18;;
74100;SDS011;62462;52.530;21.682;2023-02-28T08:34:14;13.40;;;7.43;;
74100;SDS011;62462;52.530;21.682;2023-02-28T08:36:41;15.90;;;10.00;;
74100;SDS011;62462;52.530;21.682;2023-02-28T08:39:09;16.08;;;8.80;;
74100;SDS011;62462;52.530;21.682;2023-02-28T08:41:35;13.60;;;7.28;;
74100;SDS011;62462;52.530;21.682;2023-02-28T08:44:01;15.55;;;7.57;;
74100;SDS011;62462;52.530;21.682;2023-02-28T08:46:27;13.77;;;6.95;;
74100;SDS011;62462;52.530;21.682;2023-02-28T08:48:53;15.05;;;7.43;;
74100;SDS011;62462;52.530;21.682;2023-02-28T08:51:20;20.15;;;10.98;;
74100;SDS011;62462;52.530;21.682;2023-02-28T08:53:51;17.20;;;9.27;;
74100;SDS011;62462;52.530;21.682;2023-02-28T08:56:18;14.65;;;8.18;;
74100;SDS011;62462;52.530;21.682;2023-02-28T08:58:46;13.68;;;7.70;;
74100;SDS011;62462;52.530;21.682;2023-02-28T09:03:45;16.27;;;7.80;;
74100;SDS011;62462;52.530;21.682;2023-02-28T09:06:12;13.23;;;7.60;;
74100;SDS011;62462;52.530;21.682;2023-02-28T09:08:39;12.98;;;7.40;;
74100;SDS011;62462;52.530;21.682;2023-02-28T09:11:05;15.98;;;8.32;;
74100;SDS011;62462;52.530;21.682;2023-02-28T09:13:31;16.63;;;8.55;;
74100;SDS011;62462;52.530;21.682;2023-02-28T09:15:58;13.05;;;7.55;;
74100;SDS011;62462;52.530;21.682;2023-02-28T09:18:25;14.18;;;7.88;;
74100;SDS011;62462;52.530;21.682;2023-02-28T09:20:51;23.27;;;12.43;;
74100;SDS011;62462;52.530;21.682;2023-02-28T09:23:17;20.50;;;9.77;;
74100;SDS011;62462;52.530;21.682;2023-02-28T09:25:50;17.30;;;9.13;;
74100;SDS011;62462;52.530;21.682;2023-02-28T09:28:17;13.07;;;7.97;;
74100;SDS011;62462;52.530;21.682;2023-02-28T09:30:44;13.70;;;7.57;;
74100;SDS011;62462;52.530;21.682;2023-02-28T09:33:11;15.20;;;7.90;;
74100;SDS011;62462;52.530;21.682;2023-02-28T09:35:37;15.55;;;9.38;;
74100;SDS011;62462;52.530;21.682;2023-02-28T09:38:03;15.48;;;10.27;;
74100;SDS011;62462;52.530;21.682;2023-02-28T09:40:29;14.93;;;7.82;;
74100;SDS011;62462;52.530;21.682;2023-02-28T09:42:56;16.42;;;8.68;;
74100;SDS011;62462;52.530;21.682;2023-02-28T09:45:30;15.70;;;8.50;;
74100;SDS011;62462;52.530;21.682;2023-02-28T09:53:18;16.60;;;9.68;;
74100;SDS011;62462;52.530;21.682;2023-02-28T09:55:47;18.75;;;8.63;;
74100;SDS011;62462;52.530;21.682;2023-02-28T09:58:26;17.45;;;9.80;;
74100;SDS011;62462;52.530;21.682;2023-02-28T10:01:00;15.20;;;7.60;;
74100;SDS011;62462;52.530;21.682;2023-02-28T10:06:03;15.05;;;8.73;;
74100;SDS011;62462;52.530;21.682;2023-02-28T10:08:43;18.05;;;9.98;;
74100;SDS011;62462;52.530;21.682;2023-02-28T10:11:21;11.95;;;7.60;;
74100;SDS011;62462;52.530;21.682;2023-02-28T10:17:09;14.88;;;7.75;;
74100;SDS011;62462;52.530;21.682;2023-02-28T10:19:43;12.13;;;7.05;;
74100;SDS011;62462;52.530;21.682;2023-02-28T10:22:53;16.55;;;8.10;;
74100;SDS011;62462;52.530;21.682;2023-02-28T10:25:33;12.10;;;6.43;;
74100;SDS011;62462;52.530;21.682;2023-02-28T10:28:10;12.60;;;7.45;;
74100;SDS011;62462;52.530;21.682;2023-02-28T10:30:37;12.63;;;7.32;;
74100;SDS011;62462;52.530;21.682;2023-02-28T10:33:52;11.88;;;7.18;;
74100;SDS011;62462;52.530;21.682;2023-02-28T10:36:00;13.70;;;7.07;;
74100;SDS011;62462;52.530;21.682;2023-02-28T10:38:28;12.00;;;7.05;;
74100;SDS011;62462;52.530;21.682;2023-02-28T10:41:05;13.73;;;7.28;;
74100;SDS011;62462;52.530;21.682;2023-02-28T10:43:38;13.50;;;6.70;;
74100;SDS011;62462;52.530;21.682;2023-02-28T10:48:37;13.82;;;7.68;;
74100;SDS011;62462;52.530;21.682;2023-02-28T10:51:16;24.02;;;12.57;;
74100;SDS011;62462;52.530;21.682;2023-02-28T10:53:51;23.05;;;12.68;;
74100;SDS011;62462;52.530;21.682;2023-02-28T10:58:57;13.60;;;7.25;;
74100;SDS011;62462;52.530;21.682;2023-02-28T11:01:44;12.30;;;6.85;;
74100;SDS011;62462;52.530;21.682;2023-02-28T11:06:59;11.45;;;6.38;;
74100;SDS011;62462;52.530;21.682;2023-02-28T11:09:28;9.90;;;6.47;;
74100;SDS011;62462;52.530;21.682;2023-02-28T11:12:05;13.43;;;7.07;;
74100;SDS011;62462;52.530;21.682;2023-02-28T11:14:53;12.23;;;6.95;;
74100;SDS011;62462;52.530;21.682;2023-02-28T11:17:23;12.50;;;7.07;;
74100;SDS011;62462;52.530;21.682;2023-02-28T11:19:58;13.23;;;7.10;;
74100;SDS011;62462;52.530;21.682;2023-02-28T11:22:32;13.30;;;7.22;;
74100;SDS011;62462;52.530;21.682;2023-02-28T11:25:16;12.23;;;6.40;;
74100;SDS011;62462;52.530;21.682;2023-02-28T11:27:58;11.77;;;6.80;;
74100;SDS011;62462;52.530;21.682;2023-02-28T11:33:26;12.47;;;7.03;;
74100;SDS011;62462;52.530;21.682;2023-02-28T11:36:13;10.57;;;6.50;;
74100;SDS011;62462;52.530;21.682;2023-02-28T11:38:42;13.73;;;7.72;;
74100;SDS011;62462;52.530;21.682;2023-02-28T11:44:11;13.93;;;8.38;;
74100;SDS011;62462;52.530;21.682;2023-02-28T12:11:12;15.55;;;8.52;;
74100;SDS011;62462;52.530;21.682;2023-02-28T12:16:14;16.30;;;9.05;;
74100;SDS011;62462;52.530;21.682;2023-02-28T12:24:44;12.95;;;6.90;;
74100;SDS011;62462;52.530;21.682;2023-02-28T12:27:16;14.10;;;7.68;;
74100;SDS011;62462;52.530;21.682;2023-02-28T12:30:32;13.75;;;8.00;;
74100;SDS011;62462;52.530;21.682;2023-02-28T12:32:40;19.92;;;11.27;;
74100;SDS011;62462;52.530;21.682;2023-02-28T12:37:42;16.58;;;9.23;;
74100;SDS011;62462;52.530;21.682;2023-02-28T12:43:16;14.15;;;7.75;;
74100;SDS011;62462;52.530;21.682;2023-02-28T12:45:56;18.17;;;8.68;;
74100;SDS011;62462;52.530;21.682;2023-02-28T12:51:12;14.95;;;8.70;;
74100;SDS011;62462;52.530;21.682;2023-02-28T12:53:54;13.82;;;8.55;;
74100;SDS011;62462;52.530;21.682;2023-02-28T12:59:49;15.25;;;8.43;;
74100;SDS011;62462;52.530;21.682;2023-02-28T13:11:02;15.23;;;8.45;;
74100;SDS011;62462;52.530;21.682;2023-02-28T13:13:29;16.48;;;8.23;;
74100;SDS011;62462;52.530;21.682;2023-02-28T13:16:06;16.17;;;8.40;;
74100;SDS011;62462;52.530;21.682;2023-02-28T13:18:44;15.05;;;8.50;;
74100;SDS011;62462;52.530;21.682;2023-02-28T13:21:24;37.92;;;18.95;;
74100;SDS011;62462;52.530;21.682;2023-02-28T13:34:33;12.63;;;7.97;;
74100;SDS011;62462;52.530;21.682;2023-02-28T13:39:51;13.65;;;7.70;;
74100;SDS011;62462;52.530;21.682;2023-02-28T13:47:39;15.02;;;8.23;;
74100;SDS011;62462;52.530;21.682;2023-02-28T13:55:48;15.05;;;7.78;;
74100;SDS011;62462;52.530;21.682;2023-02-28T13:58:38;13.10;;;7.35;;
74100;SDS011;62462;52.530;21.682;2023-02-28T14:06:51;17.20;;;9.32;;
74100;SDS011;62462;52.530;21.682;2023-02-28T14:09:41;19.95;;;9.93;;
74100;SDS011;62462;52.530;21.682;2023-02-28T14:17:59;18.98;;;8.23;;
74100;SDS011;62462;52.530;21.682;2023-02-28T14:20:29;16.33;;;9.80;;
74100;SDS011;62462;52.530;21.682;2023-02-28T14:23:44;18.83;;;9.93;;
74100;SDS011;62462;52.530;21.682;2023-02-28T14:26:02;14.10;;;8.13;;
74100;SDS011;62462;52.530;21.682;2023-02-28T14:31:45;16.30;;;9.95;;
74100;SDS011;62462;52.530;21.682;2023-02-28T14:36:52;12.23;;;6.55;;
74100;SDS011;62462;52.530;21.682;2023-02-28T14:39:24;10.65;;;6.45;;
74100;SDS011;62462;52.530;21.682;2023-02-28T14:41:51;13.60;;;6.75;;
74100;SDS011;62462;52.530;21.682;2023-02-28T14:44:21;26.02;;;17.27;;
74100;SDS011;62462;52.530;21.682;2023-02-28T14:46:59;14.75;;;8.48;;
74100;SDS011;62462;52.530;21.682;2023-02-28T14:49:32;21.92;;;11.43;;
74100;SDS011;62462;52.530;21.682;2023-02-28T14:54:34;14.02;;;8.05;;
74100;SDS011;62462;52.530;21.682;2023-02-28T14:57:03;11.23;;;7.15;;
74100;SDS011;62462;52.530;21.682;2023-02-28T14:59:34;11.93;;;7.25;;
74100;SDS011;62462;52.530;21.682;2023-02-28T15:02:35;18.67;;;8.82;;
74100;SDS011;62462;52.530;21.682;2023-02-28T15:04:59;15.73;;;8.02;;
74100;SDS011;62462;52.530;21.682;2023-02-28T15:07:26;19.10;;;12.05;;
74100;SDS011;62462;52.530;21.682;2023-02-28T15:10:13;26.85;;;11.48;;
74100;SDS011;62462;52.530;21.682;2023-02-28T15:12:55;13.98;;;6.75;;
74100;SDS011;62462;52.530;21.682;2023-02-28T15:16:08;12.85;;;7.55;;
74100;SDS011;62462;52.530;21.682;2023-02-28T15:20:53;12.90;;;7.82;;
74100;SDS011;62462;52.530;21.682;2023-02-28T15:23:22;15.27;;;8.50;;
74100;SDS011;62462;52.530;21.682;2023-02-28T15:25:49;20.00;;;10.73;;
74100;SDS011;62462;52.530;21.682;2023-02-28T15:28:17;21.40;;;10.30;;
74100;SDS011;62462;52.530;21.682;2023-02-28T15:31:19;20.02;;;12.52;;
74100;SDS011;62462;52.530;21.682;2023-02-28T15:33:55;94.45;;;49.72;;
74100;SDS011;62462;52.530;21.682;2023-02-28T15:36:24;173.32;;;92.78;;
74100;SDS011;62462;52.530;21.682;2023-02-28T15:38:54;165.57;;;87.55;;
74100;SDS011;62462;52.530;21.682;2023-02-28T15:41:54;182.27;;;95.10;;
74100;SDS011;62462;52.530;21.682;2023-02-28T15:46:43;67.82;;;36.50;;
74100;SDS011;62462;52.530;21.682;2023-02-28T15:49:20;43.45;;;25.33;;
74100;SDS011;62462;52.530;21.682;2023-02-28T15:51:47;37.15;;;19.95;;
74100;SDS011;62462;52.530;21.682;2023-02-28T15:54:21;36.30;;;19.73;;
74100;SDS011;62462;52.530;21.682;2023-02-28T15:56:54;36.78;;;21.27;;
74100;SDS011;62462;52.530;21.682;2023-02-28T15:59:25;27.98;;;13.40;;
74100;SDS011;62462;52.530;21.682;2023-02-28T16:04:34;56.00;;;22.17;;
74100;SDS011;62462;52.530;21.682;2023-02-28T16:07:01;51.10;;;17.83;;
74100;SDS011;62462;52.530;21.682;2023-02-28T16:09:29;57.03;;;20.95;;
74100;SDS011;62462;52.530;21.682;2023-02-28T16:11:56;55.20;;;19.27;;
74100;SDS011;62462;52.530;21.682;2023-02-28T16:14:29;71.35;;;28.75;;
74100;SDS011;62462;52.530;21.682;2023-02-28T16:16:56;72.88;;;32.13;;
74100;SDS011;62462;52.530;21.682;2023-02-28T16:19:34;99.22;;;38.47;;
74100;SDS011;62462;52.530;21.682;2023-02-28T16:22:00;66.82;;;25.92;;
74100;SDS011;62462;52.530;21.682;2023-02-28T16:24:26;45.20;;;17.00;;
74100;SDS011;62462;52.530;21.682;2023-02-28T16:26:52;45.47;;;17.85;;
74100;SDS011;62462;52.530;21.682;2023-02-28T16:29:26;44.33;;;17.60;;
74100;SDS011;62462;52.530;21.682;2023-02-28T16:31:57;38.63;;;16.27;;
74100;SDS011;62462;52.530;21.682;2023-02-28T16:34:23;36.45;;;15.35;;
74100;SDS011;62462;52.530;21.682;2023-02-28T16:36:50;47.70;;;19.20;;
74100;SDS011;62462;52.530;21.682;2023-02-28T16:39:16;75.60;;;32.20;;
74100;SDS011;62462;52.530;21.682;2023-02-28T16:41:43;33.10;;;12.40;;
74100;SDS011;62462;52.530;21.682;2023-02-28T16:46:59;34.13;;;13.13;;
74100;SDS011;62462;52.530;21.682;2023-02-28T16:49:26;39.22;;;16.50;;
74100;SDS011;62462;52.530;21.682;2023-02-28T16:51:52;22.88;;;9.05;;
74100;SDS011;62462;52.530;21.682;2023-02-28T16:54:18;17.25;;;6.95;;
74100;SDS011;62462;52.530;21.682;2023-02-28T16:56:45;13.38;;;6.80;;
74100;SDS011;62462;52.530;21.682;2023-02-28T16:59:13;15.20;;;6.47;;
74100;SDS011;62462;52.530;21.682;2023-02-28T17:04:12;13.75;;;6.63;;
74100;SDS011;62462;52.530;21.682;2023-02-28T17:06:39;12.23;;;6.63;;
74100;SDS011;62462;52.530;21.682;2023-02-28T17:09:05;14.70;;;6.45;;
74100;SDS011;62462;52.530;21.682;2023-02-28T17:11:33;20.42;;;9.88;;
74100;SDS011;62462;52.530;21.682;2023-02-28T17:13:59;30.73;;;12.63;;
74100;SDS011;62462;52.530;21.682;2023-02-28T17:16:26;24.67;;;11.05;;
74100;SDS011;62462;52.530;21.682;2023-02-28T17:18:59;20.42;;;8.90;;
74100;SDS011;62462;52.530;21.682;2023-02-28T17:21:27;16.45;;;7.97;;
74100;SDS011;62462;52.530;21.682;2023-02-28T17:23:54;14.95;;;7.18;;
74100;SDS011;62462;52.530;21.682;2023-02-28T17:26:20;14.70;;;7.28;;
74100;SDS011;62462;52.530;21.682;2023-02-28T17:28:47;13.45;;;6.88;;
74100;SDS011;62462;52.530;21.682;2023-02-28T17:31:14;15.85;;;7.40;;
74100;SDS011;62462;52.530;21.682;2023-02-28T17:33:40;15.93;;;7.63;;
74100;SDS011;62462;52.530;21.682;2023-02-28T17:36:06;14.55;;;7.25;;
74100;SDS011;62462;52.530;21.682;2023-02-28T17:38:41;17.77;;;7.65;;